Braman Corners, New York
Current Conditions -  °F | °C
As of 11:35 PM on Saturday 25 Oct 2014 (Local Time) from KNY0 Reporting Station
Clear Clear  
Wind Chill: 44°   Ceiling: Unl
Heat Index: 48°   Visibility: 7mi
Dew Point: 45°   Wind: 8mph
Humidity: 90%   Direction: 240°WSW
Pressure: 29.52"   Gusts: NA
Location:  42.7537°N, 74.1921°W
Report Text: KNY0 260335Z AUTO 24007KT 7SM CLR 09/07 A2952 RMK AO2 T00870072
Loading
Personal Weather Stations






























Interactive Weather Map
Tropical Storm Tracking
New forecast layout! Learn more

10-Day Weather Forecast

Advertisements
Track Severe Weather on mobile